sensor_id;sensor_type;location;lat;lon;timestamp;temperature;humidity
15394;DHT22;7795;47.986;11.868;2023-11-19T00:00:16;8.50;80.40
15394;DHT22;7795;47.986;11.868;2023-11-19T00:02:42;8.50;80.40
15394;DHT22;7795;47.986;11.868;2023-11-19T00:05:09;8.50;80.30
15394;DHT22;7795;47.986;11.868;2023-11-19T00:07:37;8.50;81.10
15394;DHT22;7795;47.986;11.868;2023-11-19T00:10:07;8.50;80.40
15394;DHT22;7795;47.986;11.868;2023-11-19T00:12:36;8.50;80.40
15394;DHT22;7795;47.986;11.868;2023-11-19T00:15:02;8.50;80.40
15394;DHT22;7795;47.986;11.868;2023-11-19T00:17:29;8.50;80.40
15394;DHT22;7795;47.986;11.868;2023-11-19T00:19:54;8.50;80.40
15394;DHT22;7795;47.986;11.868;2023-11-19T00:22:21;8.50;80.40
15394;DHT22;7795;47.986;11.868;2023-11-19T00:24:47;8.50;80.40
15394;DHT22;7795;47.986;11.868;2023-11-19T00:27:13;8.50;80.40
15394;DHT22;7795;47.986;11.868;2023-11-19T00:29:39;8.50;80.40
15394;DHT22;7795;47.986;11.868;2023-11-19T00:32:05;8.50;80.40
15394;DHT22;7795;47.986;11.868;2023-11-19T00:34:33;8.50;80.40
15394;DHT22;7795;47.986;11.868;2023-11-19T00:36:58;8.50;80.40
15394;DHT22;7795;47.986;11.868;2023-11-19T00:39:25;8.50;80.40
15394;DHT22;7795;47.986;11.868;2023-11-19T00:41:52;8.50;80.40
15394;DHT22;7795;47.986;11.868;2023-11-19T00:44:17;8.50;80.40
15394;DHT22;7795;47.986;11.868;2023-11-19T00:46:43;8.50;80.40
15394;DHT22;7795;47.986;11.868;2023-11-19T00:49:09;8.50;80.40
15394;DHT22;7795;47.986;11.868;2023-11-19T00:51:37;8.50;80.40
15394;DHT22;7795;47.986;11.868;2023-11-19T00:54:03;8.50;80.50
15394;DHT22;7795;47.986;11.868;2023-11-19T00:56:31;8.50;80.50
15394;DHT22;7795;47.986;11.868;2023-11-19T00:58:56;8.50;80.60
15394;DHT22;7795;47.986;11.868;2023-11-19T01:01:22;8.50;80.60
15394;DHT22;7795;47.986;11.868;2023-11-19T01:03:48;8.50;80.70
15394;DHT22;7795;47.986;11.868;2023-11-19T01:06:14;8.50;80.70
15394;DHT22;7795;47.986;11.868;2023-11-19T01:08:42;8.50;80.70
15394;DHT22;7795;47.986;11.868;2023-11-19T01:11:08;8.50;80.80
15394;DHT22;7795;47.986;11.868;2023-11-19T01:13:35;8.50;80.80
15394;DHT22;7795;47.986;11.868;2023-11-19T01:16:00;8.50;80.80
15394;DHT22;7795;47.986;11.868;2023-11-19T01:18:27;8.50;80.80
15394;DHT22;7795;47.986;11.868;2023-11-19T01:20:53;8.50;80.80
15394;DHT22;7795;47.986;11.868;2023-11-19T01:23:19;8.60;80.90
15394;DHT22;7795;47.986;11.868;2023-11-19T01:25:44;8.60;80.90
15394;DHT22;7795;47.986;11.868;2023-11-19T01:28:10;8.60;80.90
15394;DHT22;7795;47.986;11.868;2023-11-19T01:30:37;8.60;80.90
15394;DHT22;7795;47.986;11.868;2023-11-19T01:33:03;8.60;81.00
15394;DHT22;7795;47.986;11.868;2023-11-19T01:35:28;8.60;80.90
15394;DHT22;7795;47.986;11.868;2023-11-19T01:37:54;8.60;81.00
15394;DHT22;7795;47.986;11.868;2023-11-19T01:40:20;8.60;80.90
15394;DHT22;7795;47.986;11.868;2023-11-19T01:42:46;8.70;81.00
15394;DHT22;7795;47.986;11.868;2023-11-19T01:45:22;8.60;80.90
15394;DHT22;7795;47.986;11.868;2023-11-19T01:47:51;8.70;81.10
15394;DHT22;7795;47.986;11.868;2023-11-19T01:50:17;8.70;81.70
15394;DHT22;7795;47.986;11.868;2023-11-19T01:52:43;8.70;81.00
15394;DHT22;7795;47.986;11.868;2023-11-19T01:55:09;8.70;80.90
15394;DHT22;7795;47.986;11.868;2023-11-19T01:57:36;8.70;81.70
15394;DHT22;7795;47.986;11.868;2023-11-19T02:00:04;8.70;80.90
15394;DHT22;7795;47.986;11.868;2023-11-19T02:02:31;8.70;80.90
15394;DHT22;7795;47.986;11.868;2023-11-19T02:04:59;8.70;81.00
15394;DHT22;7795;47.986;11.868;2023-11-19T02:07:25;8.70;81.00
15394;DHT22;7795;47.986;11.868;2023-11-19T02:09:51;8.70;81.00
15394;DHT22;7795;47.986;11.868;2023-11-19T02:12:17;8.70;81.00
15394;DHT22;7795;47.986;11.868;2023-11-19T02:14:42;8.70;81.10
15394;DHT22;7795;47.986;11.868;2023-11-19T02:17:25;8.70;81.10
15394;DHT22;7795;47.986;11.868;2023-11-19T02:19:51;8.70;81.50
15394;DHT22;7795;47.986;11.868;2023-11-19T02:22:19;8.70;81.10
15394;DHT22;7795;47.986;11.868;2023-11-19T02:24:45;8.70;81.20
15394;DHT22;7795;47.986;11.868;2023-11-19T02:27:18;8.70;81.20
15394;DHT22;7795;47.986;11.868;2023-11-19T02:29:48;8.70;81.30
15394;DHT22;7795;47.986;11.868;2023-11-19T02:32:15;8.70;81.20
15394;DHT22;7795;47.986;11.868;2023-11-19T02:34:41;8.70;81.40
15394;DHT22;7795;47.986;11.868;2023-11-19T02:37:06;8.70;81.30
15394;DHT22;7795;47.986;11.868;2023-11-19T02:39:33;8.70;81.40
15394;DHT22;7795;47.986;11.868;2023-11-19T02:41:59;8.70;81.40
15394;DHT22;7795;47.986;11.868;2023-11-19T02:44:25;8.70;81.50
15394;DHT22;7795;47.986;11.868;2023-11-19T02:46:55;8.70;81.60
15394;DHT22;7795;47.986;11.868;2023-11-19T02:49:22;8.70;81.70
15394;DHT22;7795;47.986;11.868;2023-11-19T02:51:47;8.70;81.80
15394;DHT22;7795;47.986;11.868;2023-11-19T02:54:14;8.70;81.80
15394;DHT22;7795;47.986;11.868;2023-11-19T02:56:42;8.70;82.50
15394;DHT22;7795;47.986;11.868;2023-11-19T02:59:08;8.70;82.00
15394;DHT22;7795;47.986;11.868;2023-11-19T03:01:43;8.70;82.00
15394;DHT22;7795;47.986;11.868;2023-11-19T03:04:16;8.70;82.10
15394;DHT22;7795;47.986;11.868;2023-11-19T03:06:46;8.70;82.20
15394;DHT22;7795;47.986;11.868;2023-11-19T03:09:12;8.70;82.20
15394;DHT22;7795;47.986;11.868;2023-11-19T03:11:38;8.70;83.30
15394;DHT22;7795;47.986;11.868;2023-11-19T03:14:04;8.80;82.40
15394;DHT22;7795;47.986;11.868;2023-11-19T03:16:30;8.80;82.40
15394;DHT22;7795;47.986;11.868;2023-11-19T03:18:56;8.80;82.40
15394;DHT22;7795;47.986;11.868;2023-11-19T03:21:28;8.80;82.40
15394;DHT22;7795;47.986;11.868;2023-11-19T03:23:54;8.90;82.70
15394;DHT22;7795;47.986;11.868;2023-11-19T03:26:20;8.90;82.50
15394;DHT22;7795;47.986;11.868;2023-11-19T03:28:45;8.90;82.50
15394;DHT22;7795;47.986;11.868;2023-11-19T03:31:11;9.00;82.50
15394;DHT22;7795;47.986;11.868;2023-11-19T03:33:37;9.00;82.50
15394;DHT22;7795;47.986;11.868;2023-11-19T03:36:03;9.00;82.50
15394;DHT22;7795;47.986;11.868;2023-11-19T03:38:30;9.10;82.60
15394;DHT22;7795;47.986;11.868;2023-11-19T03:40:56;9.10;82.70
15394;DHT22;7795;47.986;11.868;2023-11-19T03:43:21;9.10;83.30
15394;DHT22;7795;47.986;11.868;2023-11-19T03:45:47;9.10;82.50
15394;DHT22;7795;47.986;11.868;2023-11-19T03:48:13;9.20;83.30
15394;DHT22;7795;47.986;11.868;2023-11-19T03:50:41;9.20;83.30
15394;DHT22;7795;47.986;11.868;2023-11-19T03:53:07;9.20;82.50
15394;DHT22;7795;47.986;11.868;2023-11-19T03:55:34;9.20;82.40
15394;DHT22;7795;47.986;11.868;2023-11-19T03:58:00;9.30;82.50
15394;DHT22;7795;47.986;11.868;2023-11-19T04:00:25;9.30;82.40
15394;DHT22;7795;47.986;11.868;2023-11-19T04:02:53;9.30;82.40
15394;DHT22;7795;47.986;11.868;2023-11-19T04:05:18;9.30;82.40
15394;DHT22;7795;47.986;11.868;2023-11-19T04:07:44;9.30;82.40
15394;DHT22;7795;47.986;11.868;2023-11-19T04:10:10;9.30;82.40
15394;DHT22;7795;47.986;11.868;2023-11-19T04:12:37;9.30;82.40
15394;DHT22;7795;47.986;11.868;2023-11-19T04:15:03;9.40;82.40
15394;DHT22;7795;47.986;11.868;2023-11-19T04:17:30;9.40;82.40
15394;DHT22;7795;47.986;11.868;2023-11-19T04:19:55;9.40;82.40
15394;DHT22;7795;47.986;11.868;2023-11-19T04:22:21;9.40;82.50
15394;DHT22;7795;47.986;11.868;2023-11-19T04:24:47;9.50;82.60
15394;DHT22;7795;47.986;11.868;2023-11-19T04:27:13;9.40;82.50
15394;DHT22;7795;47.986;11.868;2023-11-19T04:29:41;9.50;82.60
15394;DHT22;7795;47.986;11.868;2023-11-19T04:32:06;9.50;82.70
15394;DHT22;7795;47.986;11.868;2023-11-19T04:34:33;9.50;82.60
15394;DHT22;7795;47.986;11.868;2023-11-19T04:36:59;9.50;82.70
15394;DHT22;7795;47.986;11.868;2023-11-19T04:39:27;9.50;82.70
15394;DHT22;7795;47.986;11.868;2023-11-19T04:41:53;9.50;82.60
15394;DHT22;7795;47.986;11.868;2023-11-19T04:44:19;9.50;82.60
15394;DHT22;7795;47.986;11.868;2023-11-19T04:46:46;9.50;82.70
15394;DHT22;7795;47.986;11.868;2023-11-19T04:49:12;9.50;82.70
15394;DHT22;7795;47.986;11.868;2023-11-19T04:51:39;9.50;82.80
15394;DHT22;7795;47.986;11.868;2023-11-19T04:54:06;9.50;83.00
15394;DHT22;7795;47.986;11.868;2023-11-19T04:56:34;9.60;83.50
15394;DHT22;7795;47.986;11.868;2023-11-19T04:58:59;9.60;84.20
15394;DHT22;7795;47.986;11.868;2023-11-19T05:01:25;9.70;85.10
15394;DHT22;7795;47.986;11.868;2023-11-19T05:03:52;9.80;86.10
15394;DHT22;7795;47.986;11.868;2023-11-19T05:06:18;9.90;87.00
15394;DHT22;7795;47.986;11.868;2023-11-19T05:08:44;10.10;87.50
15394;DHT22;7795;47.986;11.868;2023-11-19T05:11:10;10.20;87.90
15394;DHT22;7795;47.986;11.868;2023-11-19T05:13:43;10.40;88.10
15394;DHT22;7795;47.986;11.868;2023-11-19T05:16:11;10.50;88.20
15394;DHT22;7795;47.986;11.868;2023-11-19T05:18:39;10.70;88.20
15394;DHT22;7795;47.986;11.868;2023-11-19T05:21:06;10.80;88.20
15394;DHT22;7795;47.986;11.868;2023-11-19T05:23:32;10.90;88.40
15394;DHT22;7795;47.986;11.868;2023-11-19T05:25:59;11.00;88.20
15394;DHT22;7795;47.986;11.868;2023-11-19T05:28:25;11.20;88.20
15394;DHT22;7795;47.986;11.868;2023-11-19T05:30:51;11.20;88.30
15394;DHT22;7795;47.986;11.868;2023-11-19T05:33:17;11.40;88.40
15394;DHT22;7795;47.986;11.868;2023-11-19T05:35:43;11.40;88.30
15394;DHT22;7795;47.986;11.868;2023-11-19T05:38:10;11.60;88.50
15394;DHT22;7795;47.986;11.868;2023-11-19T05:40:35;11.70;88.50
15394;DHT22;7795;47.986;11.868;2023-11-19T05:43:01;11.80;88.40
15394;DHT22;7795;47.986;11.868;2023-11-19T05:45:27;11.80;88.50
15394;DHT22;7795;47.986;11.868;2023-11-19T05:47:53;11.90;88.60
15394;DHT22;7795;47.986;11.868;2023-11-19T05:50:19;12.00;88.60
15394;DHT22;7795;47.986;11.868;2023-11-19T05:52:44;12.10;88.90
15394;DHT22;7795;47.986;11.868;2023-11-19T05:55:12;12.10;88.60
15394;DHT22;7795;47.986;11.868;2023-11-19T05:57:38;12.20;88.60
15394;DHT22;7795;47.986;11.868;2023-11-19T06:00:06;12.30;88.50
15394;DHT22;7795;47.986;11.868;2023-11-19T06:02:33;12.40;88.40
15394;DHT22;7795;47.986;11.868;2023-11-19T06:04:58;12.40;88.30
15394;DHT22;7795;47.986;11.868;2023-11-19T06:07:24;12.50;88.20
15394;DHT22;7795;47.986;11.868;2023-11-19T06:09:50;12.50;88.00
15394;DHT22;7795;47.986;11.868;2023-11-19T06:12:17;12.60;88.00
15394;DHT22;7795;47.986;11.868;2023-11-19T06:14:43;12.60;88.10
15394;DHT22;7795;47.986;11.868;2023-11-19T06:17:09;12.70;88.00
15394;DHT22;7795;47.986;11.868;2023-11-19T06:19:36;12.70;87.90
15394;DHT22;7795;47.986;11.868;2023-11-19T06:22:02;12.80;87.90
15394;DHT22;7795;47.986;11.868;2023-11-19T06:24:28;12.80;87.70
15394;DHT22;7795;47.986;11.868;2023-11-19T06:26:53;12.80;87.70
15394;DHT22;7795;47.986;11.868;2023-11-19T06:29:21;12.90;87.60
15394;DHT22;7795;47.986;11.868;2023-11-19T06:31:46;12.90;87.70
15394;DHT22;7795;47.986;11.868;2023-11-19T06:34:14;12.90;87.50
15394;DHT22;7795;47.986;11.868;2023-11-19T06:36:40;13.00;87.40
15394;DHT22;7795;47.986;11.868;2023-11-19T06:39:06;13.00;87.40
15394;DHT22;7795;47.986;11.868;2023-11-19T06:41:32;13.00;87.30
15394;DHT22;7795;47.986;11.868;2023-11-19T06:43:57;13.10;87.30
15394;DHT22;7795;47.986;11.868;2023-11-19T06:46:24;13.10;87.20
15394;DHT22;7795;47.986;11.868;2023-11-19T06:48:50;13.10;87.30
15394;DHT22;7795;47.986;11.868;2023-11-19T06:51:16;13.10;87.10
15394;DHT22;7795;47.986;11.868;2023-11-19T06:53:43;13.20;87.10
15394;DHT22;7795;47.986;11.868;2023-11-19T06:56:18;13.20;87.10
15394;DHT22;7795;47.986;11.868;2023-11-19T06:58:44;13.20;87.30
15394;DHT22;7795;47.986;11.868;2023-11-19T07:01:09;13.20;87.10
15394;DHT22;7795;47.986;11.868;2023-11-19T07:03:37;13.20;87.00
15394;DHT22;7795;47.986;11.868;2023-11-19T07:06:03;13.20;87.10
15394;DHT22;7795;47.986;11.868;2023-11-19T07:08:30;13.30;87.00
15394;DHT22;7795;47.986;11.868;2023-11-19T07:10:56;13.30;87.00
15394;DHT22;7795;47.986;11.868;2023-11-19T07:13:22;13.30;87.00
15394;DHT22;7795;47.986;11.868;2023-11-19T07:15:47;13.30;87.00
15394;DHT22;7795;47.986;11.868;2023-11-19T07:18:13;13.30;87.00
15394;DHT22;7795;47.986;11.868;2023-11-19T07:20:41;13.30;86.90
15394;DHT22;7795;47.986;11.868;2023-11-19T07:23:06;13.30;86.90
15394;DHT22;7795;47.986;11.868;2023-11-19T07:25:32;13.40;86.90
15394;DHT22;7795;47.986;11.868;2023-11-19T07:27:58;13.30;86.80
15394;DHT22;7795;47.986;11.868;2023-11-19T07:30:23;13.40;86.80
15394;DHT22;7795;47.986;11.868;2023-11-19T07:32:49;13.40;86.70
15394;DHT22;7795;47.986;11.868;2023-11-19T07:35:15;13.40;86.70
15394;DHT22;7795;47.986;11.868;2023-11-19T07:37:45;13.50;86.70
15394;DHT22;7795;47.986;11.868;2023-11-19T07:40:13;13.50;86.70
15394;DHT22;7795;47.986;11.868;2023-11-19T07:42:39;13.50;86.60
15394;DHT22;7795;47.986;11.868;2023-11-19T07:45:06;13.50;86.60
15394;DHT22;7795;47.986;11.868;2023-11-19T07:47:32;13.50;86.60
15394;DHT22;7795;47.986;11.868;2023-11-19T07:49:58;13.60;86.60
15394;DHT22;7795;47.986;11.868;2023-11-19T07:52:24;13.60;86.60
15394;DHT22;7795;47.986;11.868;2023-11-19T07:54:51;13.60;86.50
15394;DHT22;7795;47.986;11.868;2023-11-19T07:57:16;13.60;86.60
15394;DHT22;7795;47.986;11.868;2023-11-19T07:59:42;13.60;86.50
15394;DHT22;7795;47.986;11.868;2023-11-19T08:02:08;13.70;86.60
15394;DHT22;7795;47.986;11.868;2023-11-19T08:04:34;13.70;86.50
15394;DHT22;7795;47.986;11.868;2023-11-19T08:07:00;13.70;86.50
15394;DHT22;7795;47.986;11.868;2023-11-19T08:09:26;13.70;86.50
15394;DHT22;7795;47.986;11.868;2023-11-19T08:11:53;13.70;86.40
15394;DHT22;7795;47.986;11.868;2023-11-19T08:14:21;13.80;86.50
15394;DHT22;7795;47.986;11.868;2023-11-19T08:16:47;13.80;86.30
15394;DHT22;7795;47.986;11.868;2023-11-19T08:19:13;13.80;86.30
15394;DHT22;7795;47.986;11.868;2023-11-19T08:21:39;13.80;86.20
15394;DHT22;7795;47.986;11.868;2023-11-19T08:24:05;13.80;86.20
15394;DHT22;7795;47.986;11.868;2023-11-19T08:26:31;13.80;86.10
15394;DHT22;7795;47.986;11.868;2023-11-19T08:28:58;13.90;86.10
15394;DHT22;7795;47.986;11.868;2023-11-19T08:31:24;13.90;86.10
15394;DHT22;7795;47.986;11.868;2023-11-19T08:33:51;13.90;86.00
15394;DHT22;7795;47.986;11.868;2023-11-19T08:36:17;13.90;85.90
15394;DHT22;7795;47.986;11.868;2023-11-19T08:38:42;14.00;86.00
15394;DHT22;7795;47.986;11.868;2023-11-19T08:41:08;14.00;86.00
15394;DHT22;7795;47.986;11.868;2023-11-19T08:43:34;14.00;85.90
15394;DHT22;7795;47.986;11.868;2023-11-19T08:46:01;14.00;85.90
15394;DHT22;7795;47.986;11.868;2023-11-19T08:48:27;14.00;85.90
15394;DHT22;7795;47.986;11.868;2023-11-19T08:50:52;14.10;85.90
15394;DHT22;7795;47.986;11.868;2023-11-19T08:53:18;14.10;85.90
15394;DHT22;7795;47.986;11.868;2023-11-19T08:55:44;14.10;85.90
15394;DHT22;7795;47.986;11.868;2023-11-19T08:58:09;14.10;85.80
15394;DHT22;7795;47.986;11.868;2023-11-19T09:00:35;14.10;85.80
15394;DHT22;7795;47.986;11.868;2023-11-19T09:03:02;14.20;85.80
15394;DHT22;7795;47.986;11.868;2023-11-19T09:05:28;14.20;85.80
15394;DHT22;7795;47.986;11.868;2023-11-19T09:07:54;14.30;85.80
15394;DHT22;7795;47.986;11.868;2023-11-19T09:10:20;14.30;85.80
15394;DHT22;7795;47.986;11.868;2023-11-19T09:12:45;14.30;85.80
15394;DHT22;7795;47.986;11.868;2023-11-19T09:15:11;14.30;85.80
15394;DHT22;7795;47.986;11.868;2023-11-19T09:17:37;14.40;85.80
15394;DHT22;7795;47.986;11.868;2023-11-19T09:20:05;14.40;85.80
15394;DHT22;7795;47.986;11.868;2023-11-19T09:22:31;14.40;85.70
15394;DHT22;7795;47.986;11.868;2023-11-19T09:24:57;14.50;85.60
15394;DHT22;7795;47.986;11.868;2023-11-19T09:27:25;14.50;85.50
15394;DHT22;7795;47.986;11.868;2023-11-19T09:29:51;14.50;85.40
15394;DHT22;7795;47.986;11.868;2023-11-19T09:32:23;14.60;85.40
15394;DHT22;7795;47.986;11.868;2023-11-19T09:34:48;14.60;85.30
15394;DHT22;7795;47.986;11.868;2023-11-19T09:37:16;14.60;85.30
15394;DHT22;7795;47.986;11.868;2023-11-19T09:39:42;14.60;85.30
15394;DHT22;7795;47.986;11.868;2023-11-19T09:42:12;14.70;85.20
15394;DHT22;7795;47.986;11.868;2023-11-19T09:44:38;14.70;85.20
15394;DHT22;7795;47.986;11.868;2023-11-19T09:47:05;14.70;85.10
15394;DHT22;7795;47.986;11.868;2023-11-19T09:49:32;14.70;85.10
15394;DHT22;7795;47.986;11.868;2023-11-19T09:51:58;14.80;85.10
15394;DHT22;7795;47.986;11.868;2023-11-19T09:54:26;14.80;85.10
15394;DHT22;7795;47.986;11.868;2023-11-19T09:56:52;14.80;85.00
15394;DHT22;7795;47.986;11.868;2023-11-19T09:59:17;14.90;85.00
15394;DHT22;7795;47.986;11.868;2023-11-19T10:01:45;14.90;85.00
15394;DHT22;7795;47.986;11.868;2023-11-19T10:04:15;14.90;84.90
15394;DHT22;7795;47.986;11.868;2023-11-19T10:06:41;15.00;84.90
15394;DHT22;7795;47.986;11.868;2023-11-19T10:09:07;15.00;84.80
15394;DHT22;7795;47.986;11.868;2023-11-19T10:11:34;15.00;85.60
15394;DHT22;7795;47.986;11.868;2023-11-19T10:14:00;15.10;84.90
15394;DHT22;7795;47.986;11.868;2023-11-19T10:16:29;15.10;84.80
15394;DHT22;7795;47.986;11.868;2023-11-19T10:18:56;15.10;84.80
15394;DHT22;7795;47.986;11.868;2023-11-19T10:21:21;15.20;84.80
15394;DHT22;7795;47.986;11.868;2023-11-19T10:23:48;15.20;84.70
15394;DHT22;7795;47.986;11.868;2023-11-19T10:26:15;15.30;84.70
15394;DHT22;7795;47.986;11.868;2023-11-19T10:28:43;15.30;84.50
15394;DHT22;7795;47.986;11.868;2023-11-19T10:31:11;15.40;84.60
15394;DHT22;7795;47.986;11.868;2023-11-19T10:33:38;15.40;84.50
15394;DHT22;7795;47.986;11.868;2023-11-19T10:36:04;15.50;84.50
15394;DHT22;7795;47.986;11.868;2023-11-19T10:38:30;15.50;84.50
15394;DHT22;7795;47.986;11.868;2023-11-19T10:40:56;15.60;84.30
15394;DHT22;7795;47.986;11.868;2023-11-19T10:43:22;15.70;84.30
15394;DHT22;7795;47.986;11.868;2023-11-19T10:45:50;15.70;84.10
15394;DHT22;7795;47.986;11.868;2023-11-19T10:48:16;15.80;84.00
15394;DHT22;7795;47.986;11.868;2023-11-19T10:50:42;15.80;83.80
15394;DHT22;7795;47.986;11.868;2023-11-19T10:53:10;15.80;83.40
15394;DHT22;7795;47.986;11.868;2023-11-19T10:55:37;15.90;83.40
15394;DHT22;7795;47.986;11.868;2023-11-19T10:58:07;15.90;83.40
15394;DHT22;7795;47.986;11.868;2023-11-19T11:00:39;16.00;83.40
15394;DHT22;7795;47.986;11.868;2023-11-19T11:03:11;16.00;83.00
15394;DHT22;7795;47.986;11.868;2023-11-19T11:05:40;16.10;82.90
15394;DHT22;7795;47.986;11.868;2023-11-19T11:08:07;16.10;82.80
15394;DHT22;7795;47.986;11.868;2023-11-19T11:10:38;16.10;82.80
15394;DHT22;7795;47.986;11.868;2023-11-19T11:13:05;16.20;82.60
15394;DHT22;7795;47.986;11.868;2023-11-19T11:15:31;16.10;82.40
15394;DHT22;7795;47.986;11.868;2023-11-19T11:18:00;16.20;82.40
15394;DHT22;7795;47.986;11.868;2023-11-19T11:20:32;16.20;82.50
15394;DHT22;7795;47.986;11.868;2023-11-19T11:23:11;16.20;82.30
15394;DHT22;7795;47.986;11.868;2023-11-19T11:25:51;16.30;82.00
15394;DHT22;7795;47.986;11.868;2023-11-19T11:28:31;16.30;82.00
15394;DHT22;7795;47.986;11.868;2023-11-19T11:31:13;16.30;82.00
15394;DHT22;7795;47.986;11.868;2023-11-19T11:33:57;16.30;81.70
15394;DHT22;7795;47.986;11.868;2023-11-19T11:36:26;16.30;81.70
15394;DHT22;7795;47.986;11.868;2023-11-19T11:38:53;16.40;81.90
15394;DHT22;7795;47.986;11.868;2023-11-19T11:41:24;16.40;81.80
15394;DHT22;7795;47.986;11.868;2023-11-19T11:43:52;16.40;81.70
15394;DHT22;7795;47.986;11.868;2023-11-19T11:46:55;16.40;81.70
15394;DHT22;7795;47.986;11.868;2023-11-19T11:49:25;16.50;81.20
15394;DHT22;7795;47.986;11.868;2023-11-19T11:52:00;16.50;81.50
15394;DHT22;7795;47.986;11.868;2023-11-19T11:54:27;16.50;81.10
15394;DHT22;7795;47.986;11.868;2023-11-19T11:57:10;16.50;81.20
15394;DHT22;7795;47.986;11.868;2023-11-19T11:59:45;16.60;80.70
15394;DHT22;7795;47.986;11.868;2023-11-19T12:02:13;16.60;81.00
15394;DHT22;7795;47.986;11.868;2023-11-19T12:04:40;16.60;80.80
15394;DHT22;7795;47.986;11.868;2023-11-19T12:07:10;16.60;80.60
15394;DHT22;7795;47.986;11.868;2023-11-19T12:09:39;16.60;80.60
15394;DHT22;7795;47.986;11.868;2023-11-19T12:12:26;16.60;80.40
15394;DHT22;7795;47.986;11.868;2023-11-19T12:15:03;16.60;80.00
15394;DHT22;7795;47.986;11.868;2023-11-19T12:17:56;16.60;80.10
15394;DHT22;7795;47.986;11.868;2023-11-19T12:20:23;16.70;80.40
15394;DHT22;7795;47.986;11.868;2023-11-19T12:22:51;16.70;80.20
15394;DHT22;7795;47.986;11.868;2023-11-19T12:25:18;16.70;80.20
15394;DHT22;7795;47.986;11.868;2023-11-19T12:27:46;16.70;80.20
15394;DHT22;7795;47.986;11.868;2023-11-19T12:30:16;16.70;80.00
15394;DHT22;7795;47.986;11.868;2023-11-19T12:32:43;16.70;79.80
15394;DHT22;7795;47.986;11.868;2023-11-19T12:35:10;16.70;79.60
15394;DHT22;7795;47.986;11.868;2023-11-19T12:37:40;16.70;79.40
15394;DHT22;7795;47.986;11.868;2023-11-19T12:40:16;16.70;79.20
15394;DHT22;7795;47.986;11.868;2023-11-19T12:42:44;16.70;78.90
15394;DHT22;7795;47.986;11.868;2023-11-19T12:45:10;16.70;79.90
15394;DHT22;7795;47.986;11.868;2023-11-19T12:47:36;16.70;79.10
15394;DHT22;7795;47.986;11.868;2023-11-19T12:50:03;16.70;79.20
15394;DHT22;7795;47.986;11.868;2023-11-19T12:52:29;16.70;79.10
15394;DHT22;7795;47.986;11.868;2023-11-19T12:54:55;16.70;79.10
15394;DHT22;7795;47.986;11.868;2023-11-19T12:57:36;16.70;79.20
15394;DHT22;7795;47.986;11.868;2023-11-19T13:00:02;16.70;78.80
15394;DHT22;7795;47.986;11.868;2023-11-19T13:02:46;16.70;79.10
15394;DHT22;7795;47.986;11.868;2023-11-19T13:05:23;16.80;78.60
15394;DHT22;7795;47.986;11.868;2023-11-19T13:07:49;16.80;78.60
15394;DHT22;7795;47.986;11.868;2023-11-19T13:10:15;16.80;78.90
15394;DHT22;7795;47.986;11.868;2023-11-19T13:12:42;16.80;78.80
15394;DHT22;7795;47.986;11.868;2023-11-19T13:15:22;16.80;78.70
15394;DHT22;7795;47.986;11.868;2023-11-19T13:17:49;16.80;78.40
15394;DHT22;7795;47.986;11.868;2023-11-19T13:20:14;16.80;78.80
15394;DHT22;7795;47.986;11.868;2023-11-19T13:22:54;16.80;78.70
15394;DHT22;7795;47.986;11.868;2023-11-19T13:25:20;16.80;78.10
15394;DHT22;7795;47.986;11.868;2023-11-19T13:27:47;16.80;78.50
15394;DHT22;7795;47.986;11.868;2023-11-19T13:30:14;16.80;78.30
15394;DHT22;7795;47.986;11.868;2023-11-19T13:32:39;16.80;78.40
15394;DHT22;7795;47.986;11.868;2023-11-19T13:35:06;16.80;78.30
15394;DHT22;7795;47.986;11.868;2023-11-19T13:37:34;16.80;78.20
15394;DHT22;7795;47.986;11.868;2023-11-19T13:39:59;16.80;78.20
15394;DHT22;7795;47.986;11.868;2023-11-19T13:42:25;16.80;78.20
15394;DHT22;7795;47.986;11.868;2023-11-19T13:44:52;16.70;78.20
15394;DHT22;7795;47.986;11.868;2023-11-19T13:47:18;16.80;78.20
15394;DHT22;7795;47.986;11.868;2023-11-19T13:49:44;16.80;78.20
15394;DHT22;7795;47.986;11.868;2023-11-19T13:52:10;16.80;78.20
15394;DHT22;7795;47.986;11.868;2023-11-19T13:54:37;16.70;78.00
15394;DHT22;7795;47.986;11.868;2023-11-19T13:57:03;16.70;78.00
15394;DHT22;7795;47.986;11.868;2023-11-19T13:59:30;16.70;78.00
15394;DHT22;7795;47.986;11.868;2023-11-19T14:01:58;16.70;78.10
15394;DHT22;7795;47.986;11.868;2023-11-19T14:04:23;16.70;78.10
15394;DHT22;7795;47.986;11.868;2023-11-19T14:06:49;16.70;78.20
15394;DHT22;7795;47.986;11.868;2023-11-19T14:09:15;16.70;78.20
15394;DHT22;7795;47.986;11.868;2023-11-19T14:11:41;16.70;78.20
15394;DHT22;7795;47.986;11.868;2023-11-19T14:14:07;16.60;78.20
15394;DHT22;7795;47.986;11.868;2023-11-19T14:16:33;16.60;78.20
15394;DHT22;7795;47.986;11.868;2023-11-19T14:19:01;16.60;78.20
15394;DHT22;7795;47.986;11.868;2023-11-19T14:21:27;16.60;78.20
15394;DHT22;7795;47.986;11.868;2023-11-19T14:23:52;16.60;78.20
15394;DHT22;7795;47.986;11.868;2023-11-19T14:26:18;16.60;78.20
15394;DHT22;7795;47.986;11.868;2023-11-19T14:28:44;16.60;78.20
15394;DHT22;7795;47.986;11.868;2023-11-19T14:31:10;16.60;78.20
15394;DHT22;7795;47.986;11.868;2023-11-19T14:33:35;16.50;78.30
15394;DHT22;7795;47.986;11.868;2023-11-19T14:36:05;16.50;78.40
15394;DHT22;7795;47.986;11.868;2023-11-19T14:38:32;16.50;79.10
15394;DHT22;7795;47.986;11.868;2023-11-19T14:40:58;16.50;78.40
15394;DHT22;7795;47.986;11.868;2023-11-19T14:43:25;16.50;78.40
15394;DHT22;7795;47.986;11.868;2023-11-19T14:45:50;16.50;78.20
15394;DHT22;7795;47.986;11.868;2023-11-19T14:48:16;16.50;78.10
15394;DHT22;7795;47.986;11.868;2023-11-19T14:50:43;16.50;77.90
15394;DHT22;7795;47.986;11.868;2023-11-19T14:53:11;16.50;77.90
15394;DHT22;7795;47.986;11.868;2023-11-19T14:55:37;16.50;77.80
15394;DHT22;7795;47.986;11.868;2023-11-19T14:58:03;16.50;77.80
15394;DHT22;7795;47.986;11.868;2023-11-19T15:00:28;16.50;77.80
15394;DHT22;7795;47.986;11.868;2023-11-19T15:02:54;16.50;77.60
15394;DHT22;7795;47.986;11.868;2023-11-19T15:05:21;16.50;77.60
15394;DHT22;7795;47.986;11.868;2023-11-19T15:07:47;16.50;77.60
15394;DHT22;7795;47.986;11.868;2023-11-19T15:10:15;16.40;77.50
15394;DHT22;7795;47.986;11.868;2023-11-19T15:12:41;16.40;77.50
15394;DHT22;7795;47.986;11.868;2023-11-19T15:15:08;16.40;77.50
15394;DHT22;7795;47.986;11.868;2023-11-19T15:17:35;16.40;77.40
15394;DHT22;7795;47.986;11.868;2023-11-19T15:20:02;16.40;77.50
15394;DHT22;7795;47.986;11.868;2023-11-19T15:22:27;16.30;77.50
15394;DHT22;7795;47.986;11.868;2023-11-19T15:24:53;16.30;77.40
15394;DHT22;7795;47.986;11.868;2023-11-19T15:27:20;16.30;77.40
15394;DHT22;7795;47.986;11.868;2023-11-19T15:29:46;16.30;78.20
15394;DHT22;7795;47.986;11.868;2023-11-19T15:32:12;16.20;77.40
15394;DHT22;7795;47.986;11.868;2023-11-19T15:34:37;16.20;77.40